Time;durP1;ratioP1;P1;durP2;ratioP2;P2;SDS_P1;SDS_P2;PMS_P1;PMS_P2;Temp;Humidity;BMP_temperature;BMP_pressure;BME280_temperature;BME280_humidity;BME280_pressure;Samples;Min_cycle;Max_cycle;Signal;HPM_P1;HPM_P2
2021/08/28 00:01:56;;;;;;;12.75;6.35;;;;;11.20;101374.00;;;;5109834;28;20039;-76
2021/08/28 00:04:23;;;;;;;9.38;2.70;;;;;11.10;101396.00;;;;5109588;28;20485;-76
2021/08/28 00:06:49;;;;;;;21.95;4.05;;;;;11.10;101389.00;;;;5109739;28;20101;-77
2021/08/28 00:09:16;;;;;;;15.25;4.35;;;;;11.00;101403.00;;;;5109661;28;20048;-77
2021/08/28 00:11:42;;;;;;;13.68;3.92;;;;;10.90;101390.00;;;;5109870;28;20069;-77
2021/08/28 00:14:09;;;;;;;9.07;2.85;;;;;10.90;101390.00;;;;5108924;28;20057;-76
2021/08/28 00:16:36;;;;;;;10.00;2.70;;;;;10.90;101413.00;;;;5108787;28;20040;-75
2021/08/28 00:19:02;;;;;;;15.82;3.45;;;;;10.90;101395.00;;;;5109148;28;20086;-76
2021/08/28 00:21:29;;;;;;;11.02;2.35;;;;;10.90;101412.00;;;;5108857;28;20402;-77
2021/08/28 00:23:56;;;;;;;8.70;2.40;;;;;10.90;101427.00;;;;5109449;28;20030;-79
2021/08/28 00:26:22;;;;;;;10.63;2.65;;;;;10.80;101395.00;;;;5109075;28;20027;-77
2021/08/28 00:28:49;;;;;;;11.45;2.65;;;;;10.70;101431.00;;;;5109203;28;20034;-78
2021/08/28 00:31:15;;;;;;;17.73;2.60;;;;;10.70;101401.00;;;;5109540;28;20034;-78
2021/08/28 00:33:42;;;;;;;8.32;2.22;;;;;10.60;101434.00;;;;5109014;28;20048;-78
2021/08/28 00:36:09;;;;;;;11.43;2.15;;;;;10.60;101430.00;;;;5109541;28;20051;-77
2021/08/28 00:38:35;;;;;;;8.57;1.98;;;;;10.60;101415.00;;;;5108969;28;20032;-78
2021/08/28 00:41:02;;;;;;;13.07;2.53;;;;;10.50;101399.00;;;;5108668;28;20031;-77
2021/08/28 00:43:29;;;;;;;13.10;1.98;;;;;10.50;101415.00;;;;5108322;28;20073;-77
2021/08/28 00:45:56;;;;;;;10.98;2.13;;;;;10.40;101433.00;;;;5108986;28;20118;-78
2021/08/28 00:48:22;;;;;;;7.65;2.35;;;;;10.50;101433.00;;;;5108664;28;20077;-78
2021/08/28 00:50:49;;;;;;;10.75;2.33;;;;;10.50;101413.00;;;;5107692;28;20035;-78
2021/08/28 00:53:17;;;;;;;22.77;3.08;;;;;10.50;101430.00;;;;5108707;28;20077;-78
2021/08/28 00:55:45;;;;;;;10.68;2.08;;;;;10.60;101449.00;;;;5108027;27;20027;-77
2021/08/28 00:58:12;;;;;;;16.75;3.40;;;;;10.60;101445.00;;;;5108561;28;20037;-78
2021/08/28 01:00:49;;;;;;;18.85;3.85;;;;;10.50;101462.00;;;;5107587;28;20047;-77
2021/08/28 01:03:23;;;;;;;16.08;5.18;;;;;10.40;101431.00;;;;5108463;28;20042;-77
2021/08/28 01:05:59;;;;;;;16.02;4.30;;;;;10.40;101470.00;;;;5108382;28;20444;-77
2021/08/28 01:08:44;;;;;;;12.85;3.10;;;;;10.30;101472.00;;;;5107413;28;20051;-77
2021/08/28 01:11:23;;;;;;;11.85;2.60;;;;;10.30;101457.00;;;;5108411;28;20028;-76
2021/08/28 01:13:55;;;;;;;16.05;2.53;;;;;10.20;101466.00;;;;5108288;28;20023;-77
2021/08/28 01:16:22;;;;;;;11.07;2.75;;;;;10.20;101476.00;;;;5108110;28;20486;-77
2021/08/28 01:18:56;;;;;;;13.38;2.40;;;;;10.10;101467.00;;;;5108215;28;20031;-77
2021/08/28 01:21:33;;;;;;;14.50;2.70;;;;;10.10;101420.00;;;;5108418;28;20051;-78
2021/08/28 01:24:06;;;;;;;16.35;2.60;;;;;10.20;101431.00;;;;5108403;27;20039;-77
2021/08/28 01:26:45;;;;;;;17.33;2.30;;;;;10.30;101410.00;;;;5108383;28;20035;-77
2021/08/28 01:29:18;;;;;;;10.23;2.28;;;;;10.30;101418.00;;;;5107749;28;20486;-76
2021/08/28 01:31:49;;;;;;;14.48;1.88;;;;;10.30;101409.00;;;;5106864;28;20616;-76
2021/08/28 01:34:17;;;;;;;15.25;2.38;;;;;10.20;101425.00;;;;5108020;28;20743;-76
2021/08/28 01:36:46;;;;;;;11.98;2.67;;;;;10.30;101403.00;;;;5107974;28;20042;-76
2021/08/28 01:39:14;;;;;;;19.65;9.50;;;;;10.30;101388.00;;;;5107609;28;20023;-76
2021/08/28 01:41:45;;;;;;;18.98;7.97;;;;;10.20;101408.00;;;;5107445;27;20035;-76
2021/08/28 01:44:13;;;;;;;15.37;2.43;;;;;10.20;101417.00;;;;5107466;28;20062;-77
2021/08/28 01:46:41;;;;;;;14.82;2.20;;;;;10.10;101427.00;;;;5107688;28;20310;-78
2021/08/28 01:49:09;;;;;;;14.57;3.03;;;;;10.10;101429.00;;;;5106997;28;20417;-78
2021/08/28 01:51:38;;;;;;;11.45;1.92;;;;;10.00;101388.00;;;;5107569;28;20114;-77
2021/08/28 01:54:05;;;;;;;13.52;2.30;;;;;9.90;101408.00;;;;5107528;28;20050;-77
2021/08/28 01:56:32;;;;;;;9.75;2.80;;;;;10.00;101416.00;;;;5106639;28;20035;-77
2021/08/28 01:59:00;;;;;;;17.55;2.88;;;;;9.90;101387.00;;;;5105702;28;20390;-77
2021/08/28 02:01:28;;;;;;;17.60;2.85;;;;;9.80;101413.00;;;;5106930;28;20785;-78
2021/08/28 02:03:55;;;;;;;11.07;2.55;;;;;9.80;101400.00;;;;5106994;28;20576;-78
2021/08/28 02:06:36;;;;;;;22.67;3.50;;;;;9.80;101407.00;;;;5107274;28;20031;-78
2021/08/28 02:09:41;;;;;;;11.82;2.30;;;;;9.90;101405.00;;;;5105648;28;20081;-78
2021/08/28 02:12:19;;;;;;;14.07;2.58;;;;;9.90;101411.00;;;;5102740;28;20110;-79
2021/08/28 02:15:08;;;;;;;21.05;2.58;;;;;9.80;101381.00;;;;5107264;28;20031;-78
2021/08/28 02:18:11;;;;;;;13.77;2.47;;;;;9.70;101399.00;;;;5107834;28;20032;-78
2021/08/28 02:20:43;;;;;;;21.33;2.60;;;;;9.70;101408.00;;;;5104790;28;20502;-77
2021/08/28 02:23:14;;;;;;;17.95;2.83;;;;;9.70;101372.00;;;;5107123;28;20080;-78
2021/08/28 02:26:02;;;;;;;16.70;2.88;;;;;9.80;101405.00;;;;5107808;28;20420;-78
2021/08/28 02:28:42;;;;;;;14.23;2.42;;;;;9.80;101394.00;;;;5107242;28;20034;-77
2021/08/28 02:31:10;;;;;;;16.70;2.35;;;;;9.70;101420.00;;;;5107191;28;20034;-78
2021/08/28 02:33:38;;;;;;;11.57;2.70;;;;;9.70;101421.00;;;;5106665;28;20375;-78
2021/08/28 02:36:06;;;;;;;10.98;2.40;;;;;9.80;101426.00;;;;5107702;28;20023;-78
2021/08/28 02:38:34;;;;;;;16.63;2.30;;;;;9.70;101407.00;;;;5107083;28;20034;-78
2021/08/28 02:41:04;;;;;;;12.40;2.22;;;;;9.60;101415.00;;;;5106897;28;20098;-77
2021/08/28 02:43:31;;;;;;;15.30;3.25;;;;;9.50;101400.00;;;;5106806;28;20118;-77
2021/08/28 02:45:59;;;;;;;14.75;2.50;;;;;9.50;101422.00;;;;5107691;28;20500;-78
2021/08/28 02:48:28;;;;;;;11.85;2.35;;;;;9.50;101401.00;;;;5107153;28;20055;-78
2021/08/28 02:50:57;;;;;;;15.98;2.38;;;;;9.50;101418.00;;;;5107290;28;20093;-77
2021/08/28 02:53:26;;;;;;;12.95;2.35;;;;;9.50;101431.00;;;;5106893;28;20024;-77
2021/08/28 02:55:54;;;;;;;15.20;2.83;;;;;9.60;101400.00;;;;5106964;28;20031;-77
2021/08/28 02:58:21;;;;;;;20.17;3.63;;;;;9.60;101422.00;;;;5106746;28;20035;-78
2021/08/28 03:00:49;;;;;;;18.50;3.67;;;;;9.60;101428.00;;;;5106113;28;20040;-78
2021/08/28 03:03:17;;;;;;;15.38;2.97;;;;;9.70;101436.00;;;;5105496;28;20032;-78
2021/08/28 03:05:47;;;;;;;21.08;3.33;;;;;9.70;101415.00;;;;5106869;28;20038;-78
2021/08/28 03:08:15;;;;;;;16.58;2.28;;;;;9.50;101383.00;;;;5106944;28;20020;-79
2021/08/28 03:10:45;;;;;;;14.30;2.30;;;;;9.60;101410.00;;;;5106437;28;20035;-77
2021/08/28 03:13:12;;;;;;;12.35;2.55;;;;;9.50;101395.00;;;;5108743;28;20490;-78
2021/08/28 03:15:41;;;;;;;14.95;2.00;;;;;9.50;101379.00;;;;5110841;28;20051;-77
2021/08/28 03:18:09;;;;;;;23.17;2.78;;;;;9.50;101371.00;;;;5110136;28;20126;-76
2021/08/28 03:20:36;;;;;;;19.77;2.55;;;;;9.80;101365.00;;;;5111080;28;20027;-77
2021/08/28 03:23:04;;;;;;;17.92;2.97;;;;;9.80;101392.00;;;;5110336;28;20062;-78
2021/08/28 03:25:31;;;;;;;19.55;2.58;;;;;9.80;101412.00;;;;5110245;28;20059;-79
2021/08/28 03:27:58;;;;;;;17.33;2.30;;;;;9.80;101414.00;;;;5109501;28;20030;-79
2021/08/28 03:30:26;;;;;;;17.25;2.75;;;;;9.90;101401.00;;;;5108895;28;20878;-78
2021/08/28 03:32:54;;;;;;;25.45;2.58;;;;;9.90;101396.00;;;;5110569;28;20487;-78
2021/08/28 03:35:21;;;;;;;18.52;3.42;;;;;10.10;101406.00;;;;5110312;28;20102;-78
2021/08/28 03:37:48;;;;;;;24.85;2.67;;;;;10.00;101399.00;;;;5110736;28;20028;-78
2021/08/28 03:40:15;;;;;;;16.42;2.00;;;;;9.90;101404.00;;;;5110608;28;20098;-78
2021/08/28 03:42:42;;;;;;;14.90;2.35;;;;;9.80;101371.00;;;;5110026;28;20474;-79
2021/08/28 03:45:10;;;;;;;18.02;2.13;;;;;9.80;101397.00;;;;5109953;28;20028;-78
2021/08/28 03:47:41;;;;;;;14.40;2.17;;;;;9.80;101405.00;;;;5110304;28;20522;-79
2021/08/28 03:50:08;;;;;;;16.70;2.17;;;;;9.80;101394.00;;;;5108546;28;20467;-78
2021/08/28 03:52:34;;;;;;;10.70;2.47;;;;;9.80;101395.00;;;;5109708;28;20039;-78
2021/08/28 03:55:01;;;;;;;20.02;2.65;;;;;9.80;101403.00;;;;5109388;28;20020;-78
2021/08/28 03:57:28;;;;;;;20.50;2.63;;;;;9.80;101396.00;;;;5109982;28;20385;-78
2021/08/28 03:59:54;;;;;;;15.43;2.38;;;;;9.80;101394.00;;;;5109649;28;20471;-79
2021/08/28 04:02:21;;;;;;;14.38;2.03;;;;;9.80;101382.00;;;;5109456;28;20027;-77
2021/08/28 04:04:48;;;;;;;13.23;2.17;;;;;9.80;101361.00;;;;5109966;28;21090;-78
2021/08/28 04:07:14;;;;;;;14.93;2.55;;;;;9.70;101376.00;;;;5109849;28;20034;-78
2021/08/28 04:09:41;;;;;;;11.52;2.10;;;;;9.70;101403.00;;;;5109048;28;20058;-77
2021/08/28 04:12:07;;;;;;;17.20;2.45;;;;;9.70;101388.00;;;;5109882;28;20035;-79
2021/08/28 04:14:34;;;;;;;18.33;1.98;;;;;9.60;101386.00;;;;5109518;28;20019;-79
2021/08/28 04:17:01;;;;;;;12.65;2.67;;;;;9.50;101380.00;;;;5109736;28;20686;-77
2021/08/28 04:19:27;;;;;;;16.83;2.60;;;;;9.60;101373.00;;;;5108940;28;20023;-77
2021/08/28 04:21:54;;;;;;;16.48;2.88;;;;;9.60;101408.00;;;;5109260;28;20081;-78
2021/08/28 04:24:21;;;;;;;15.18;2.53;;;;;9.50;101386.00;;;;5109127;27;20061;-78
2021/08/28 04:26:47;;;;;;;20.33;2.53;;;;;9.50;101395.00;;;;5109066;28;20027;-77
2021/08/28 04:29:14;;;;;;;11.00;2.03;;;;;9.40;101396.00;;;;5109414;28;20031;-78
2021/08/28 04:31:41;;;;;;;15.93;2.08;;;;;9.30;101349.00;;;;5109481;28;20115;-77
2021/08/28 04:34:07;;;;;;;13.73;2.58;;;;;9.30;101362.00;;;;5108946;28;20023;-78
2021/08/28 04:36:34;;;;;;;9.43;1.98;;;;;9.20;101361.00;;;;5108899;28;20038;-79
2021/08/28 04:39:01;;;;;;;17.00;2.63;;;;;9.20;101361.00;;;;5109562;28;20035;-79
2021/08/28 04:41:28;;;;;;;14.60;2.10;;;;;9.20;101390.00;;;;5109430;28;20031;-78
2021/08/28 04:43:55;;;;;;;8.93;2.00;;;;;9.10;101377.00;;;;5108926;28;20023;-79
2021/08/28 04:46:21;;;;;;;17.50;2.65;;;;;9.00;101363.00;;;;5108690;28;20087;-79
2021/08/28 04:48:48;;;;;;;13.90;2.88;;;;;9.10;101389.00;;;;5109327;28;20115;-79
2021/08/28 04:51:15;;;;;;;12.65;2.22;;;;;9.10;101366.00;;;;5108697;28;20030;-79
2021/08/28 04:53:41;;;;;;;8.07;2.00;;;;;9.00;101379.00;;;;5108576;28;20028;-77
2021/08/28 04:56:08;;;;;;;15.13;2.10;;;;;9.00;101360.00;;;;5109106;28;20031;-78
2021/08/28 04:58:35;;;;;;;8.68;1.65;;;;;8.90;101363.00;;;;5108932;28;20035;-78
2021/08/28 05:01:02;;;;;;;13.93;2.13;;;;;8.80;101366.00;;;;5108413;28;20027;-78
2021/08/28 05:03:28;;;;;;;10.00;1.70;;;;;8.80;101335.00;;;;5108569;28;20089;-78
2021/08/28 05:05:55;;;;;;;13.35;1.80;;;;;8.70;101326.00;;;;5108298;28;20540;-78
2021/08/28 05:08:22;;;;;;;14.00;2.40;;;;;8.60;101370.00;;;;5108154;28;20027;-78
2021/08/28 05:10:49;;;;;;;15.93;1.98;;;;;8.60;101340.00;;;;5108042;28;20037;-78
2021/08/28 05:13:16;;;;;;;8.50;1.63;;;;;8.60;101334.00;;;;5108735;28;20085;-78
2021/08/28 05:15:43;;;;;;;15.52;1.85;;;;;8.60;101339.00;;;;5108375;28;20031;-78
2021/08/28 05:18:09;;;;;;;8.57;1.60;;;;;8.60;101351.00;;;;5107620;28;20024;-77
2021/08/28 05:20:36;;;;;;;10.82;1.90;;;;;8.50;101339.00;;;;5108245;28;20024;-78
2021/08/28 05:23:03;;;;;;;12.75;2.33;;;;;8.50;101349.00;;;;5108706;28;20015;-78
2021/08/28 05:25:29;;;;;;;10.35;1.63;;;;;8.60;101356.00;;;;5108202;28;20031;-78
2021/08/28 05:27:56;;;;;;;13.07;2.35;;;;;8.60;101322.00;;;;5108121;28;20030;-77
2021/08/28 05:30:22;;;;;;;11.43;1.95;;;;;8.50;101338.00;;;;5106615;28;20059;-78
2021/08/28 05:32:49;;;;;;;14.05;2.33;;;;;8.40;101365.00;;;;5107518;28;20570;-78
2021/08/28 05:35:16;;;;;;;12.05;1.70;;;;;8.40;101367.00;;;;5107816;28;20516;-78
2021/08/28 05:37:42;;;;;;;16.10;2.25;;;;;8.40;101339.00;;;;5107135;28;20032;-78
2021/08/28 05:40:11;;;;;;;9.27;1.55;;;;;8.30;101327.00;;;;5107824;28;20114;-78
2021/08/28 05:42:38;;;;;;;13.73;1.77;;;;;8.30;101350.00;;;;5108054;28;20035;-78
2021/08/28 05:45:05;;;;;;;10.77;1.98;;;;;8.30;101323.00;;;;5107605;28;20016;-77
2021/08/28 05:47:32;;;;;;;12.05;1.83;;;;;8.30;101351.00;;;;5106426;28;20112;-78
2021/08/28 05:49:59;;;;;;;12.48;2.45;;;;;8.20;101364.00;;;;5107631;28;20490;-78
2021/08/28 05:52:26;;;;;;;11.70;2.20;;;;;8.10;101366.00;;;;5107207;28;20574;-79
2021/08/28 05:54:52;;;;;;;10.48;2.00;;;;;8.00;101338.00;;;;5107384;27;20028;-77
2021/08/28 05:57:19;;;;;;;14.38;2.30;;;;;8.10;101374.00;;;;5107955;28;20031;-79
2021/08/28 05:59:45;;;;;;;12.15;1.95;;;;;8.00;101375.00;;;;5107423;28;20477;-79
2021/08/28 06:02:12;;;;;;;19.20;2.28;;;;;8.10;101352.00;;;;5108018;28;20024;-78
2021/08/28 06:04:39;;;;;;;16.65;2.40;;;;;8.00;101341.00;;;;5107283;28;20134;-79
2021/08/28 06:07:06;;;;;;;13.57;2.40;;;;;8.00;101356.00;;;;5107332;28;20035;-79
2021/08/28 06:09:32;;;;;;;16.92;2.20;;;;;7.90;101343.00;;;;5107222;28;20502;-79
2021/08/28 06:11:59;;;;;;;11.23;2.22;;;;;7.90;101290.00;;;;5108077;28;20020;-80
2021/08/28 06:14:26;;;;;;;14.10;2.50;;;;;7.90;101343.00;;;;5107969;28;20032;-78
2021/08/28 06:16:52;;;;;;;13.95;1.80;;;;;8.10;101307.00;;;;5107031;28;20035;-79
2021/08/28 06:19:20;;;;;;;11.48;2.13;;;;;8.10;101347.00;;;;5107381;28;20027;-78
2021/08/28 06:21:47;;;;;;;10.27;2.20;;;;;8.10;101333.00;;;;5107325;28;20031;-79
2021/08/28 06:24:13;;;;;;;8.52;1.65;;;;;8.20;101345.00;;;;5106826;28;20398;-80
2021/08/28 06:26:40;;;;;;;10.18;1.92;;;;;8.20;101336.00;;;;5106911;28;20483;-79
2021/08/28 06:29:06;;;;;;;13.38;2.63;;;;;8.30;101341.00;;;;5106785;28;20024;-80
2021/08/28 06:31:33;;;;;;;8.63;2.42;;;;;8.50;101334.00;;;;5107799;28;20077;-78
2021/08/28 06:34:00;;;;;;;17.33;2.75;;;;;8.60;101321.00;;;;5105542;28;20046;-79
2021/08/28 06:36:26;;;;;;;36.00;3.47;;;;;8.80;101352.00;;;;5107231;28;20516;-79
2021/08/28 06:38:53;;;;;;;27.80;4.00;;;;;8.90;101336.00;;;;5107474;28;20395;-79
2021/08/28 06:41:19;;;;;;;24.73;3.90;;;;;9.00;101339.00;;;;5107041;28;20028;-78
2021/08/28 06:43:46;;;;;;;13.82;3.20;;;;;9.10;101339.00;;;;5105449;28;20414;-79
2021/08/28 06:46:13;;;;;;;21.05;3.88;;;;;9.20;101331.00;;;;5107142;28;20019;-80
2021/08/28 06:48:40;;;;;;;52.25;5.70;;;;;9.20;101335.00;;;;5109458;28;20125;-78
2021/08/28 06:51:06;;;;;;;293.95;10.55;;;;;9.20;101326.00;;;;5111091;28;20037;-78
2021/08/28 06:53:33;;;;;;;316.20;9.68;;;;;9.20;101332.00;;;;5109736;28;20027;-78
2021/08/28 06:55:59;;;;;;;207.23;9.10;;;;;9.10;101320.00;;;;5110845;28;20020;-79
2021/08/28 06:58:26;;;;;;;187.80;8.50;;;;;9.00;101341.00;;;;5110513;28;20046;-78
2021/08/28 07:00:54;;;;;;;63.72;7.15;;;;;8.90;101342.00;;;;5110819;28;20031;-78
2021/08/28 07:03:20;;;;;;;213.25;7.38;;;;;8.70;101308.00;;;;5110392;28;20063;-78
2021/08/28 07:05:47;;;;;;;89.22;5.35;;;;;8.70;101298.00;;;;5110143;28;20031;-79
2021/08/28 07:08:13;;;;;;;106.38;5.40;;;;;8.60;101310.00;;;;5110409;28;20146;-79
2021/08/28 07:10:40;;;;;;;31.23;4.30;;;;;8.50;101313.00;;;;5110535;28;20032;-79
2021/08/28 07:13:07;;;;;;;48.28;4.00;;;;;8.30;101318.00;;;;5110514;28;20024;-80
2021/08/28 07:15:34;;;;;;;77.45;4.15;;;;;8.30;101340.00;;;;5110689;28;20039;-79
2021/08/28 07:18:00;;;;;;;55.25;3.72;;;;;8.20;101318.00;;;;5110435;28;20034;-79
2021/08/28 07:20:27;;;;;;;63.38;3.80;;;;;8.10;101310.00;;;;5111006;28;20106;-80
2021/08/28 07:22:53;;;;;;;9.82;2.40;;;;;8.00;101352.00;;;;5108912;28;20514;-79
2021/08/28 07:25:20;;;;;;;18.33;2.80;;;;;7.90;101327.00;;;;5110791;28;20835;-80
2021/08/28 07:27:47;;;;;;;77.97;4.00;;;;;7.80;101349.00;;;;5110335;28;20494;-78
2021/08/28 07:30:14;;;;;;;99.05;3.70;;;;;7.70;101350.00;;;;5110090;27;20032;-80
2021/08/28 07:32:40;;;;;;;88.50;3.88;;;;;7.70;101333.00;;;;5110767;28;20024;-79
2021/08/28 07:35:08;;;;;;;81.32;3.45;;;;;7.60;101335.00;;;;5110619;28;20114;-79
2021/08/28 07:37:34;;;;;;;11.35;1.90;;;;;7.60;101357.00;;;;5110369;28;20043;-78
2021/08/28 07:40:02;;;;;;;13.43;2.40;;;;;7.50;101339.00;;;;5108118;28;20053;-80
2021/08/28 07:42:28;;;;;;;21.10;2.50;;;;;7.40;101355.00;;;;5110609;28;20072;-80
2021/08/28 07:44:55;;;;;;;42.97;2.63;;;;;7.30;101350.00;;;;5109450;28;20107;-80
2021/08/28 07:47:22;;;;;;;20.80;2.53;;;;;7.30;101344.00;;;;5109896;28;20420;-79
2021/08/28 07:49:49;;;;;;;4.82;1.70;;;;;7.20;101368.00;;;;5109642;28;20057;-80
2021/08/28 07:52:18;;;;;;;40.58;2.60;;;;;7.30;101341.00;;;;5109886;28;20076;-80
2021/08/28 07:54:47;;;;;;;22.70;2.40;;;;;7.40;101370.00;;;;5109671;28;20114;-79
2021/08/28 07:57:14;;;;;;;37.38;2.88;;;;;7.50;101342.00;;;;5110154;28;20054;-79
2021/08/28 07:59:40;;;;;;;15.95;2.85;;;;;7.50;101345.00;;;;5109187;28;20070;-78
2021/08/28 08:02:07;;;;;;;183.57;6.88;;;;;7.40;101344.00;;;;5109836;28;20023;-80
2021/08/28 08:04:34;;;;;;;182.63;4.65;;;;;7.40;101364.00;;;;5109511;28;20404;-79
2021/08/28 08:07:00;;;;;;;168.65;6.18;;;;;7.20;101376.00;;;;5108941;28;20028;-79
2021/08/28 08:09:27;;;;;;;65.07;3.28;;;;;7.20;101365.00;;;;5109805;28;20048;-79
2021/08/28 08:11:53;;;;;;;100.45;3.60;;;;;7.20;101356.00;;;;5109976;28;20119;-80
2021/08/28 08:14:20;;;;;;;63.50;3.22;;;;;7.10;101390.00;;;;5109679;28;20027;-78
2021/08/28 08:16:47;;;;;;;47.75;2.65;;;;;7.00;101364.00;;;;5109752;28;20028;-79
2021/08/28 08:19:13;;;;;;;34.58;3.00;;;;;7.00;101347.00;;;;5109525;28;20459;-79
2021/08/28 08:21:40;;;;;;;36.30;2.55;;;;;6.90;101365.00;;;;5109271;28;20023;-80
2021/08/28 08:24:07;;;;;;;29.20;2.42;;;;;6.90;101372.00;;;;5109974;28;20110;-78
2021/08/28 08:26:33;;;;;;;61.30;3.13;;;;;6.80;101367.00;;;;5109469;28;20024;-81
2021/08/28 08:29:00;;;;;;;63.60;2.95;;;;;6.70;101404.00;;;;5109188;28;20032;-80
2021/08/28 08:31:27;;;;;;;137.35;4.75;;;;;6.90;101363.00;;;;5109072;28;20070;-79
2021/08/28 08:33:53;;;;;;;131.50;5.25;;;;;6.90;101369.00;;;;5108384;28;20061;-79
2021/08/28 08:36:20;;;;;;;192.38;5.90;;;;;6.90;101411.00;;;;5108785;28;20024;-80
2021/08/28 08:38:46;;;;;;;238.18;7.68;;;;;7.00;101416.00;;;;5109041;28;20436;-78
2021/08/28 08:41:14;;;;;;;101.13;5.20;;;;;7.00;101384.00;;;;5109299;28;20390;-80
2021/08/28 08:43:41;;;;;;;174.77;6.00;;;;;7.00;101409.00;;;;5107457;28;20073;-80
2021/08/28 08:46:09;;;;;;;116.80;4.85;;;;;6.90;101404.00;;;;5108748;28;20035;-80
2021/08/28 08:48:36;;;;;;;93.82;3.53;;;;;6.90;101406.00;;;;5108788;28;20115;-79
2021/08/28 08:51:04;;;;;;;105.00;4.03;;;;;6.80;101389.00;;;;5109618;28;20070;-81
2021/08/28 08:53:31;;;;;;;94.05;3.67;;;;;6.90;101410.00;;;;5108846;28;20453;-79
2021/08/28 08:55:59;;;;;;;121.30;5.65;;;;;6.90;101413.00;;;;5107173;28;20080;-79
2021/08/28 08:58:26;;;;;;;136.05;5.07;;;;;7.00;101421.00;;;;5108341;28;20032;-79
2021/08/28 09:00:53;;;;;;;251.63;7.75;;;;;7.00;101412.00;;;;5108655;28;20063;-79
2021/08/28 09:03:20;;;;;;;249.73;8.23;;;;;7.00;101414.00;;;;5106520;28;20486;-80
2021/08/28 09:05:47;;;;;;;80.35;4.05;;;;;7.00;101404.00;;;;5108668;28;20110;-80
2021/08/28 09:08:14;;;;;;;208.50;6.20;;;;;7.10;101412.00;;;;5106585;28;20059;-80
2021/08/28 09:10:41;;;;;;;162.90;5.68;;;;;7.10;101464.00;;;;5108546;28;20042;-79
2021/08/28 09:13:26;;;;;;;347.73;13.80;;;;;7.10;101435.00;;;;5108346;28;20055;-81
2021/08/28 09:16:07;;;;;;;198.35;6.55;;;;;7.20;101462.00;;;;5108110;28;20106;-81
2021/08/28 09:18:51;;;;;;;203.80;7.68;;;;;7.30;101471.00;;;;5108910;28;20528;-82
2021/08/28 09:21:21;;;;;;;394.70;14.90;;;;;7.40;101491.00;;;;5107968;28;20031;-81
2021/08/28 09:23:47;;;;;;;405.98;10.25;;;;;7.30;101469.00;;;;5108307;28;20055;-82
2021/08/28 09:26:33;;;;;;;307.45;11.30;;;;;7.30;101510.00;;;;5107625;28;20027;-81
2021/08/28 09:29:00;;;;;;;301.27;9.02;;;;;7.40;101502.00;;;;5108071;28;20081;-80
2021/08/28 09:31:48;;;;;;;153.18;5.13;;;;;7.30;101524.00;;;;5108320;28;20035;-80
2021/08/28 09:34:23;;;;;;;180.75;5.43;;;;;7.30;101482.00;;;;5108597;28;20449;-80
2021/08/28 09:37:00;;;;;;;117.20;4.03;;;;;7.20;101523.00;;;;5107923;28;20031;-81
2021/08/28 09:39:48;;;;;;;95.07;3.60;;;;;7.30;101488.00;;;;5107676;28;20440;-81
2021/08/28 09:42:23;;;;;;;76.85;3.25;;;;;7.30;101503.00;;;;5107762;28;20032;-79
2021/08/28 09:44:52;;;;;;;84.35;3.33;;;;;7.30;101503.00;;;;5106571;28;20387;-80
2021/08/28 09:47:22;;;;;;;148.13;4.28;;;;;7.40;101485.00;;;;5107956;28;20439;-80
2021/08/28 09:49:51;;;;;;;84.60;3.78;;;;;7.50;101513.00;;;;5107826;28;20031;-80
2021/08/28 09:52:22;;;;;;;76.28;2.80;;;;;7.60;101526.00;;;;5106170;28;20110;-80
2021/08/28 09:54:49;;;;;;;101.30;3.00;;;;;7.50;101478.00;;;;5106858;28;20063;-80
2021/08/28 09:57:16;;;;;;;101.35;3.50;;;;;7.50;101516.00;;;;5103655;28;20072;-80
2021/08/28 09:59:44;;;;;;;90.28;2.92;;;;;7.50;101504.00;;;;5105360;28;20498;-80
2021/08/28 10:02:17;;;;;;;129.70;3.97;;;;;7.60;101472.00;;;;5107656;28;20669;-82
2021/08/28 10:04:58;;;;;;;98.75;3.30;;;;;7.50;101472.00;;;;5107499;28;20035;-79
2021/08/28 10:07:27;;;;;;;75.15;2.60;;;;;7.50;101488.00;;;;5107454;28;20076;-80
2021/08/28 10:10:02;;;;;;;55.25;3.10;;;;;7.50;101514.00;;;;5107477;28;20110;-80
2021/08/28 10:12:31;;;;;;;67.22;2.60;;;;;7.50;101500.00;;;;5107555;28;20032;-80
2021/08/28 10:14:59;;;;;;;35.20;2.65;;;;;7.60;101504.00;;;;5105877;28;20120;-80
2021/08/28 10:17:28;;;;;;;79.93;3.70;;;;;7.70;101492.00;;;;5107696;28;20393;-80
2021/08/28 10:19:56;;;;;;;172.57;4.35;;;;;7.80;101508.00;;;;5106975;28;20059;-81
2021/08/28 10:22:28;;;;;;;218.18;6.32;;;;;8.10;101517.00;;;;5105033;28;20075;-81
2021/08/28 10:24:58;;;;;;;223.30;6.00;;;;;8.10;101508.00;;;;5107248;28;20438;-81
2021/08/28 10:27:27;;;;;;;139.83;4.13;;;;;8.20;101520.00;;;;5107195;28;20036;-82
2021/08/28 10:29:54;;;;;;;180.95;5.18;;;;;8.30;101484.00;;;;5105700;28;20128;-81
2021/08/28 10:32:22;;;;;;;194.18;5.75;;;;;8.30;101485.00;;;;5106972;28;20882;-82
2021/08/28 10:34:49;;;;;;;195.27;6.80;;;;;8.30;101450.00;;;;5107138;28;20019;-81
2021/08/28 10:37:17;;;;;;;107.90;3.88;;;;;8.30;101486.00;;;;5107561;28;20028;-81
2021/08/28 10:39:47;;;;;;;79.78;4.45;;;;;8.30;101494.00;;;;5105786;28;20023;-80
2021/08/28 10:42:14;;;;;;;92.22;3.20;;;;;8.30;101504.00;;;;5107275;28;20051;-80
2021/08/28 10:44:42;;;;;;;116.80;3.50;;;;;8.20;101500.00;;;;5106713;28;20035;-80
2021/08/28 10:47:34;;;;;;;26.70;1.70;;;;;8.40;101512.00;;;;5106378;28;20035;-80
2021/08/28 10:50:09;;;;;;;26.15;1.55;;;;;8.50;101490.00;;;;5102961;28;20043;-81
2021/08/28 10:52:38;;;;;;;25.40;1.58;;;;;8.50;101518.00;;;;5106636;28;20051;-80
2021/08/28 10:55:11;;;;;;;4.90;1.40;;;;;8.60;101526.00;;;;5107071;28;20547;-80
2021/08/28 10:57:38;;;;;;;3.20;1.38;;;;;8.70;101491.00;;;;5106765;28;20019;-80
2021/08/28 11:00:16;;;;;;;10.38;3.28;;;;;9.10;101513.00;;;;5106402;28;20024;-82
2021/08/28 11:02:58;;;;;;;8.07;1.48;;;;;9.60;101521.00;;;;5105742;28;20533;-81
2021/08/28 11:05:27;;;;;;;62.40;2.65;;;;;10.00;101488.00;;;;5106744;28;20035;-81
2021/08/28 11:07:58;;;;;;;88.13;2.85;;;;;10.30;101500.00;;;;5106719;28;20111;-80
2021/08/28 11:10:28;;;;;;;128.27;5.40;;;;;10.60;101480.00;;;;5108615;28;20495;-81
2021/08/28 11:13:01;;;;;;;203.05;5.72;;;;;10.40;101489.00;;;;5111103;28;20138;-81
2021/08/28 11:15:36;;;;;;;305.73;7.97;;;;;10.40;101512.00;;;;5114134;28;20080;-80
2021/08/28 11:18:13;;;;;;;463.25;12.73;;;;;10.50;101513.00;;;;5105198;28;20538;-81
2021/08/28 11:21:07;;;;;;;307.38;7.35;;;;;10.60;101506.00;;;;5106185;28;20103;-80
2021/08/28 11:23:42;;;;;;;433.92;11.40;;;;;10.90;101474.00;;;;5104411;28;20039;-80
2021/08/28 11:26:08;;;;;;;303.17;7.57;;;;;11.60;101465.00;;;;5106801;28;20023;-80
2021/08/28 11:28:41;;;;;;;182.63;5.25;;;;;12.70;101426.00;;;;5106797;28;20043;-81
2021/08/28 11:31:08;;;;;;;161.07;4.32;;;;;14.20;101377.00;;;;5106493;28;20032;-80
2021/08/28 11:33:37;;;;;;;67.53;3.15;;;;;15.50;101393.00;;;;5106545;28;20028;-81
2021/08/28 11:36:20;;;;;;;71.63;3.00;;;;;16.90;101311.00;;;;5108816;28;20460;-80
2021/08/28 11:38:53;;;;;;;34.05;3.58;;;;;17.20;101332.00;;;;5108515;28;20065;-81
2021/08/28 11:41:22;;;;;;;29.13;3.30;;;;;16.50;101395.00;;;;5110157;28;20024;-79
2021/08/28 11:43:50;;;;;;;15.15;2.00;;;;;15.10;101472.00;;;;5110112;28;20516;-78
2021/08/28 11:46:23;;;;;;;10.32;2.90;;;;;13.80;101529.00;;;;5110456;28;20088;-80
2021/08/28 11:48:50;;;;;;;29.58;2.10;;;;;12.60;101531.00;;;;5110426;28;20035;-78
2021/08/28 11:51:22;;;;;;;76.55;2.80;;;;;12.00;101510.00;;;;5109943;28;20131;-81
2021/08/28 11:53:57;;;;;;;12.05;1.38;;;;;12.10;101503.00;;;;5110273;28;20080;-77
2021/08/28 11:56:26;;;;;;;2.13;0.95;;;;;12.80;101511.00;;;;5110047;28;20484;-81
2021/08/28 11:59:00;;;;;;;6.35;1.27;;;;;14.80;101435.00;;;;5109411;28;20035;-82
2021/08/28 12:01:30;;;;;;;5.25;1.58;;;;;17.50;101355.00;;;;5110034;28;20516;-78
2021/08/28 12:04:08;;;;;;;4.17;1.77;;;;;20.50;101365.00;;;;5109803;28;20028;-78
2021/08/28 12:06:37;;;;;;;6.47;1.60;;;;;20.30;101341.00;;;;5109647;28;20076;-79
2021/08/28 12:09:07;;;;;;;4.80;1.70;;;;;19.80;101289.00;;;;5109670;28;20212;-81
2021/08/28 12:11:35;;;;;;;5.03;1.50;;;;;19.70;101237.00;;;;5110229;28;20030;-78
2021/08/28 12:14:05;;;;;;;2.15;1.30;;;;;15.90;101460.00;;;;5110038;27;20110;-80
2021/08/28 12:16:34;;;;;;;5.90;1.50;;;;;14.80;101440.00;;;;5110758;28;20024;-79